^^
Station Historical Data
Daily Summary for January 2, 2018 Units:  Metric    English   Both
« Previous Day
Next Day »
Daily Weekly Monthly Yearly Custom
  High: Low: Average:
Temperature: 29.6 °C 18.7 °C 25.7 °C
Dew Point: 2.3 °C -1.2 °C 1.2 °C
Humidity: 26% 17% 20%
Wind Speed: 28.8km/h 0km/h 10.9km/h
Wind Gust: 38.6km/h - -
Wind- - SSE
Pressure: 1022.6 hPa 1018.5 hPa -
Precipitation: 0 mm    
Historical Graphs
 
 
Tabular Data for January 2, 2018
Time Temperature Dew Point Pressure Wind Wind Speed Wind Gust Humidity Rainfall Rate (Hourly) solar Conditions
09:07 18.7 °C -1.2 °C 1020.9 hPa North 28.8 km/h 35.4 km/h 26% 0 mm meteobridge W/m2
09:13 18.9 °C -1 °C 1020.9 hPa North 22.7 km/h 38.6 km/h 26% 0 mm meteobridge W/m2
09:27 19.5 °C -0.5 °C 1021.2 hPa North 24.1 km/h 32.2 km/h 26% 0 mm meteobridge W/m2
09:33 19.7 °C -0.3 °C 1021.6 hPa North 9.7 km/h 32.2 km/h 26% 0 mm meteobridge W/m2
09:40 19.8 °C -0.3 °C 1021.6 hPa North 16.3 km/h 30.6 km/h 26% 0 mm meteobridge W/m2
09:46 20.2 °C -0.5 °C 1021.6 hPa North 24.1 km/h 30.6 km/h 25% 0 mm meteobridge W/m2
09:50 20.3 °C -0.4 °C 1021.6 hPa NNE 24.1 km/h 25.7 km/h 25% 0 mm meteobridge W/m2
10:02 20.9 °C -0.4 °C 1021.9 hPa North 16.3 km/h 20.9 km/h 24% 0 mm meteobridge W/m2
10:08 21.2 °C -0.2 °C 1021.9 hPa North 25.9 km/h 27.4 km/h 24% 0 mm meteobridge W/m2
10:14 21.6 °C -0.4 °C 1021.9 hPa NNE 28.8 km/h 33.8 km/h 23% 0 mm meteobridge W/m2
10:20 21.6 °C 0.2 °C 1022.2 hPa NNE 13 km/h 25.7 km/h 24% 0 mm meteobridge W/m2
10:27 22 °C -0.1 °C 1022.2 hPa NNE 6.4 km/h 24.1 km/h 23% 0 mm meteobridge W/m2
10:33 22.2 °C 0.1 °C 1022.6 hPa NNW 16.3 km/h 27.4 km/h 23% 0 mm meteobridge W/m2
10:39 22.3 °C 0.2 °C 1022.6 hPa NNE 17.7 km/h 24.1 km/h 23% 0 mm meteobridge W/m2
10:45 22.2 °C 0.1 °C 1022.2 hPa NNE 9.7 km/h 37 km/h 23% 0 mm meteobridge W/m2
10:51 22.4 °C -0.4 °C 1022.2 hPa North 20.9 km/h 27.4 km/h 22% 0 mm meteobridge W/m2
11:03 22.9 °C 0.1 °C 1022.2 hPa North 17.7 km/h 27.4 km/h 22% 0 mm meteobridge W/m2
11:10 23.1 °C 0.2 °C 1022.6 hPa North 7.9 km/h 19.3 km/h 22% 0 mm meteobridge W/m2
11:16 23.5 °C 0.6 °C 1022.6 hPa NE 4.7 km/h 20.9 km/h 22% 0 mm meteobridge W/m2
11:22 23.6 °C 0.6 °C 1022.2 hPa North 9.7 km/h 19.3 km/h 22% 0 mm meteobridge W/m2
11:28 23.8 °C 0.8 °C 1022.2 hPa NNW 14.3 km/h 19.3 km/h 22% 0 mm meteobridge W/m2
11:34 24.1 °C 0.4 °C 1021.9 hPa North 20.9 km/h 20.9 km/h 21% 0 mm meteobridge W/m2
11:36 24.2 °C 0.5 °C 1022.2 hPa NNW 16.3 km/h 25.7 km/h 21% 0 mm meteobridge W/m2
11:48 24.4 °C 0.7 °C 1022.2 hPa North 13 km/h 32.2 km/h 21% 0 mm meteobridge W/m2
11:56 24.3 °C 0.6 °C 1021.9 hPa North 25.9 km/h 25.9 km/h 21% 0 mm meteobridge W/m2
12:03 24.2 °C 0.5 °C 1022.2 hPa NNW 9.7 km/h 17.7 km/h 21% 0 mm meteobridge W/m2
12:15 25 °C 1.2 °C 1021.9 hPa NNE 6.4 km/h 11.3 km/h 21% 0 mm meteobridge W/m2
12:21 24.9 °C 1.1 °C 1021.9 hPa NNE 11.1 km/h 14.5 km/h 21% 0 mm meteobridge W/m2
12:27 25.1 °C 1.2 °C 1021.9 hPa NNW 6.4 km/h 11.3 km/h 21% 0 mm meteobridge W/m2
12:33 25.9 °C 1.2 °C 1021.9 hPa NNE 6.4 km/h 16.1 km/h 20% 0 mm meteobridge W/m2
12:39 26 °C 1.3 °C 1021.9 hPa North 9.7 km/h 20.9 km/h 20% 0 mm meteobridge W/m2
12:45 25.6 °C 1 °C 1021.9 hPa NE 4.7 km/h 8 km/h 20% 0 mm meteobridge W/m2
12:51 25.8 °C 1.1 °C 1021.9 hPa NNE 7.9 km/h 16.1 km/h 20% 0 mm meteobridge W/m2
12:58 26.8 °C 2 °C 1021.9 hPa NNE 11.1 km/h 11.3 km/h 20% 0 mm meteobridge W/m2
13:10 26.9 °C 1.3 °C 1021.6 hPa West 1.4 km/h 6.4 km/h 19% 0 mm meteobridge W/m2
13:16 26.7 °C 1.2 °C 1021.6 hPa North 20.9 km/h 25.7 km/h 19% 0 mm meteobridge W/m2
13:22 26.6 °C 1.8 °C 1021.6 hPa NNE 16.3 km/h 20.9 km/h 20% 0 mm meteobridge W/m2
13:35 27.1 °C 1.5 °C 1021.2 hPa NW 1.4 km/h 17.7 km/h 19% 0 mm meteobridge W/m2
13:37 27.4 °C 1.7 °C 1021.2 hPa North 19.5 km/h 22.5 km/h 19% 0 mm meteobridge W/m2
13:43 27.1 °C 1.5 °C 1021.2 hPa NE 9.7 km/h 17.7 km/h 19% 0 mm meteobridge W/m2
13:49 28 °C 2.2 °C 1021.2 hPa NNW 16.3 km/h 16.3 km/h 19% 0 mm meteobridge W/m2
13:55 27.6 °C 1.9 °C 1020.9 hPa NW 11.1 km/h 24.1 km/h 19% 0 mm meteobridge W/m2
14:07 26.7 °C 1.9 °C 1021.2 hPa North 7.9 km/h 27.4 km/h 20% 0 mm meteobridge W/m2
14:20 27.2 °C 1.6 °C 1020.5 hPa NE 4.7 km/h 8 km/h 19% 0 mm meteobridge W/m2
14:26 28.1 °C 2.3 °C 1020.5 hPa NNE 17.7 km/h 25.7 km/h 19% 0 mm meteobridge W/m2
14:32 27.3 °C 1.7 °C 1020.5 hPa ESE 11.1 km/h 27.4 km/h 19% 0 mm meteobridge W/m2
14:40 27.8 °C 2.1 °C 1020.5 hPa NE 9.7 km/h 19.3 km/h 19% 0 mm meteobridge W/m2
14:46 28 °C 2.2 °C 1020.5 hPa NNE 17.7 km/h 20.9 km/h 19% 0 mm meteobridge W/m2
14:52 27.8 °C 2.1 °C 1020.2 hPa North 7.9 km/h 22.5 km/h 19% 0 mm meteobridge W/m2
14:58 27.6 °C 1.9 °C 1020.2 hPa NNE 7.9 km/h 22.5 km/h 19% 0 mm meteobridge W/m2
15:04 27.8 °C 2.1 °C 1020.2 hPa NNE 22.7 km/h 25.7 km/h 19% 0 mm meteobridge W/m2
15:10 27.7 °C 2 °C 1020.2 hPa North 22.7 km/h 22.7 km/h 19% 0 mm meteobridge W/m2
15:17 27.8 °C 2.1 °C 1020.2 hPa North 17.7 km/h 24.1 km/h 19% 0 mm meteobridge W/m2
15:23 28 °C 1.5 °C 1020.2 hPa NNW 16.3 km/h 19.3 km/h 18% 0 mm meteobridge W/m2
15:35 28.8 °C 2.1 °C 1019.9 hPa NE 7.9 km/h 11.3 km/h 18% 0 mm meteobridge W/m2
15:39 29 °C 2.3 °C 1019.9 hPa NNE 6.4 km/h 12.9 km/h 18% 0 mm meteobridge W/m2
15:45 28.9 °C 2.2 °C 1019.5 hPa NNE 1.4 km/h 9.7 km/h 18% 0 mm meteobridge W/m2
15:51 28.9 °C 2.2 °C 1019.5 hPa NE 3.2 km/h 19.3 km/h 18% 0 mm meteobridge W/m2
15:55 28.7 °C 2 °C 1019.5 hPa South 4.7 km/h 9.7 km/h 18% 0 mm meteobridge W/m2
16:01 29.6 °C 2 °C 1019.2 hPa North 11.1 km/h 17.7 km/h 17% 0 mm meteobridge W/m2
16:07 29.6 °C 2 °C 1019.2 hPa North 20.9 km/h 32.2 km/h 17% 0 mm meteobridge W/m2
16:16 28.6 °C 2 °C 1019.2 hPa Calm   1.6 km/h 18% 0 mm meteobridge W/m2
16:22 28.3 °C 1.7 °C 1019.2 hPa SSW 3.2 km/h 9.7 km/h 18% 0 mm meteobridge W/m2
16:30 28.7 °C 2 °C 1019.2 hPa SSE 3.2 km/h 9.7 km/h 18% 0 mm meteobridge W/m2
16:36 28.6 °C 2 °C 1018.8 hPa NNW 1.4 km/h 20.9 km/h 18% 0 mm meteobridge W/m2
16:54 27.4 °C 1.7 °C 1018.8 hPa North 16.3 km/h 19.3 km/h 19% 0 mm meteobridge W/m2
16:56 27.6 °C 1.9 °C 1018.8 hPa NNE 11.1 km/h 16.1 km/h 19% 0 mm meteobridge W/m2
17:02 28.1 °C 1.5 °C 1018.8 hPa NNE 7.9 km/h 14.5 km/h 18% 0 mm meteobridge W/m2
17:15 27.4 °C 1 °C 1018.8 hPa NE 9.7 km/h 14.5 km/h 18% 0 mm meteobridge W/m2
17:21 27.2 °C 1.6 °C 1018.5 hPa North 4.7 km/h 19.3 km/h 19% 0 mm meteobridge W/m2
17:27 27 °C 1.4 °C 1018.8 hPa North 6.4 km/h 14.5 km/h 19% 0 mm meteobridge W/m2
17:31 27 °C 1.4 °C 1018.8 hPa NNE 3.2 km/h 8 km/h 19% 0 mm meteobridge W/m2
17:37 27.1 °C 1.5 °C 1018.8 hPa NNE 1.4 km/h 3.2 km/h 19% 0 mm meteobridge W/m2
17:43 27.1 °C 1.5 °C 1018.8 hPa Calm   8 km/h 19% 0 mm meteobridge W/m2
17:49 27.2 °C 1.6 °C 1018.8 hPa NNW 1.4 km/h 6.4 km/h 19% 0 mm meteobridge W/m2
17:55 27.2 °C 1.6 °C 1018.8 hPa North 6.4 km/h 14.5 km/h 19% 0 mm meteobridge W/m2
18:01 27.2 °C 1.6 °C 1018.8 hPa North 7.9 km/h 17.7 km/h 19% 0 mm meteobridge W/m2
18:08 26.9 °C 1.3 °C 1018.8 hPa NNW 1.4 km/h 1.6 km/h 19% 0 mm meteobridge W/m2
18:14 26.8 °C 1.2 °C 1018.8 hPa SSW 6.4 km/h 12.9 km/h 19% 0 mm meteobridge W/m2
18:20 26.4 °C 0.9 °C 1019.2 hPa West 4.7 km/h 8 km/h 19% 0 mm meteobridge W/m2
18:32 26.8 °C 1.2 °C 1019.2 hPa SW 6.4 km/h 8 km/h 19% 0 mm meteobridge W/m2
18:38 26.8 °C 1.2 °C 1019.2 hPa West 11.1 km/h 12.9 km/h 19% 0 mm meteobridge W/m2
18:44 27.2 °C 1.6 °C 1019.2 hPa SE 4.7 km/h 8 km/h 19% 0 mm meteobridge W/m2
18:51 27.6 °C 1.9 °C 1019.2 hPa Calm   11.3 km/h 19% 0 mm meteobridge W/m2
18:57 27.5 °C 1.8 °C 1019.2 hPa SW 3.2 km/h 8 km/h 19% 0 mm meteobridge W/m2
19:09 26.3 °C 0.8 °C 1019.2 hPa West 6.4 km/h 8 km/h 19% 0 mm meteobridge W/m2
19:15 26.1 °C 1.4 °C 1019.5 hPa WSW 3.2 km/h 3.2 km/h 20% 0 mm meteobridge W/m2
19:21 26.1 °C 1.4 °C 1019.5 hPa WSW 3.2 km/h -1607.7 km/h 20% 0 mm meteobridge W/m2
Regenstein, Windhoek, Namibia
Compliments of Weather Underground - 2.25 mb